Flugplatz Unterschüpf (EDGU)

Hier findest Du alle Informationen zum Flugplatz Unterschüpf (EDGU).

Informationen für Piloten zum Flugplatz Unterschüpf

Hier findest Du alle relevanten Informationen, die Du als Pilot benötigst, um Unterschüpf anzufliegen.

Flugplatz: Unterschüpf ICAO-Code: EDGU
Frequenz Turm: 122,600 Mhz GAFOR Gebiet: 54
Frequenz Ground: 122,600 Mhz Mogas: ja
Platzrunde: S 2000 ft Landegebühr: -
Platzhöhe: 1.154 ft Sunrise: 06:14 Uhr UTC
Pisten: 09/27 - 670 m x 30 m, GRAS Sunset: 16:54 Uhr UTC

Mitglieder, die in Unterschüpf fliegen

Flugwetter am Flugplatz Unterschüpf

Die METAR Information stammen aus EDFM (83.43 km entfernt).

METAR Code:
2024/02/18 21:50
EDFM 182150Z AUTO 19006KT 9999 // OVC023/// 09/08 Q1026

Flugschulen am Flugplatz Unterschüpf

Am Flugplatz Unterschüpf gibt es leider keine Flugschule.

Benachbarte Flugplätze und Flugschulen

Es gibt 19 weitere Flugplätze in einem Umkreis von 50 km um den Flugplatz Unterschüpf.

Jetzt anmelden

Passwort vergessen

Umfrage Archiv

Wie häufig haltet Ihr die Halbkreisflugregel ein?

Eher häufig!
34.7 %
Immer!
32.2 %
Hin und wieder!
15.8 %
Nie!
10.4 %
Eher selten!
6.9 %
Stimmen: 202 | Diskussion
Anzeige: Roland Aircraft
Statistik Alle Mitglieder

Aktuell sind 29 Besucher online, davon 2 Mitglieder und 27 Gäste.


Mitglieder online:
fred3456.2  franzzahn 

Anzeige: EasyVFR